South Camden, New Jersey
Current Conditions -  °F | °C
As of 1:54 PM on Friday 21 Nov 2014 (Local Time) from KPHL Reporting Station
Few Clouds Few Clouds  
Wind Chill: 27°   Ceiling: Unl
Heat Index: 37°   Visibility: 10mi
Dew Point:   Wind: 20mph
Humidity: 28%   Direction: 320°NW
Pressure: 30.39"   Gusts: 26mph
Location:  39.9206°N, 75.1123°W
Report Text: KPHL 211854Z 32017G23KT 10SM FEW065 03/M14 A3039 RMK AO2 SLP291 T00281144 $
Loading
Personal Weather Stations






























Interactive Weather Map New forecast layout! Learn more

10-Day Weather Forecast

Advertisements
Track Severe Weather on mobile